createdAt,value
2019-04-07T00:02:05.320Z,37.42
2019-04-07T00:04:34.890Z,36.83
2019-04-07T00:07:04.620Z,37.35
2019-04-07T00:09:34.396Z,38.65
2019-04-07T00:12:04.322Z,37.73
2019-04-07T00:14:33.897Z,37.33
2019-04-07T00:17:03.483Z,38.13
2019-04-07T00:19:33.045Z,38.58
2019-04-07T00:22:02.561Z,38.15
2019-04-07T00:24:32.371Z,37.08
2019-04-07T00:27:03.641Z,38.35
2019-04-07T00:29:34.405Z,38.25
2019-04-07T00:32:03.993Z,38.92
2019-04-07T00:34:33.575Z,40.15
2019-04-07T00:37:03.168Z,38.42
2019-04-07T00:39:32.748Z,39.08
2019-04-07T00:42:03.845Z,38.10
2019-04-07T00:44:33.539Z,40.05
2019-04-07T00:47:03.360Z,39.23
2019-04-07T00:49:32.942Z,36.95
2019-04-07T00:52:04.206Z,37.93
2019-04-07T00:54:33.772Z,38.63
2019-04-07T00:57:04.643Z,39.10
2019-04-07T00:59:34.162Z,37.90
2019-04-07T01:02:05.032Z,38.67
2019-04-07T01:04:35.245Z,38.53
2019-04-07T01:07:04.997Z,36.73
2019-04-07T01:09:35.247Z,37.13
2019-04-07T01:12:05.047Z,38.17
2019-04-07T01:14:34.649Z,38.20
2019-04-07T01:17:04.464Z,37.78
2019-04-07T01:19:34.430Z,38.42
2019-04-07T01:22:05.468Z,38.45
2019-04-07T01:24:35.244Z,39.10
2019-04-07T01:27:05.093Z,38.25
2019-04-07T01:29:35.338Z,36.80
2019-04-07T01:32:04.995Z,36.05
2019-04-07T01:34:35.034Z,37.08
2019-04-07T01:37:04.657Z,37.13
2019-04-07T01:39:34.875Z,37.17
2019-04-07T01:42:06.579Z,37.35
2019-04-07T01:44:37.945Z,35.80
2019-04-07T01:47:12.344Z,36.55
2019-04-07T01:49:44.416Z,36.23
2019-04-07T01:52:25.316Z,36.25
2019-04-07T01:55:12.940Z,36.08
2019-04-07T01:57:44.327Z,36.15
2019-04-07T02:00:19.002Z,36.50
2019-04-07T02:02:52.928Z,36.83
2019-04-07T02:05:39.195Z,35.92
2019-04-07T02:08:25.476Z,34.78
2019-04-07T02:10:57.147Z,36.03
2019-04-07T02:13:35.021Z,34.67
2019-04-07T02:16:06.582Z,36.85
2019-04-07T02:18:44.233Z,36.63
2019-04-07T02:21:15.740Z,35.73
2019-04-07T02:24:05.013Z,35.45
2019-04-07T02:26:39.052Z,36.35
2019-04-07T02:29:10.485Z,36.30
2019-04-07T02:31:58.474Z,34.38
2019-04-07T02:34:32.576Z,34.83
2019-04-07T02:37:04.690Z,34.27
2019-04-07T02:39:48.693Z,33.00
2019-04-07T02:42:30.321Z,34.90
2019-04-07T02:45:04.242Z,33.70
2019-04-07T02:47:44.666Z,32.90
2019-04-07T02:50:33.264Z,33.15
2019-04-07T02:53:07.677Z,32.70
2019-04-07T02:55:45.222Z,33.78
2019-04-07T02:58:19.194Z,34.40
2019-04-07T03:01:07.015Z,34.63
2019-04-07T03:03:38.495Z,34.08
2019-04-07T03:06:35.772Z,34.70
2019-04-07T03:08:59.319Z,35.40
2019-04-07T03:11:37.338Z,32.10
2019-04-07T03:14:17.887Z,34.67
2019-04-07T03:17:06.605Z,32.58
2019-04-07T03:19:38.073Z,31.45
2019-04-07T03:22:09.277Z,32.00
2019-04-07T03:24:49.722Z,33.15
2019-04-07T03:27:38.077Z,32.33
2019-04-07T03:30:18.027Z,33.10
2019-04-07T03:32:58.055Z,32.35
2019-04-07T03:35:32.450Z,32.78
2019-04-07T03:38:05.185Z,33.38
2019-04-07T03:40:46.306Z,32.42
2019-04-07T03:43:32.893Z,34.55
2019-04-07T03:46:08.059Z,33.50
2019-04-07T03:48:45.891Z,32.90
2019-04-07T03:51:33.499Z,31.57
2019-04-07T03:54:05.062Z,35.08
2019-04-07T03:56:45.500Z,34.40
2019-04-07T03:59:20.149Z,33.92
2019-04-07T04:02:00.389Z,34.25
2019-04-07T04:04:32.302Z,35.03
2019-04-07T04:07:17.814Z,36.83
2019-04-07T04:09:48.825Z,36.30
2019-04-07T04:15:00.563Z,34.30
2019-04-07T04:17:31.181Z,35.30
2019-04-07T04:20:00.813Z,37.55
2019-04-07T04:22:30.792Z,36.33
2019-04-07T04:25:01.012Z,36.13
2019-04-07T04:27:31.309Z,35.33
2019-04-07T04:30:01.063Z,36.23
2019-04-07T04:32:31.170Z,35.13
2019-04-07T04:35:01.056Z,35.88
2019-04-07T04:37:39.893Z,34.75
2019-04-07T04:40:02.137Z,36.63
2019-04-07T04:42:31.717Z,35.13
2019-04-07T04:45:02.383Z,34.25
2019-04-07T04:47:32.861Z,38.02
2019-04-07T04:50:02.604Z,39.88
2019-04-07T04:52:32.402Z,36.98
2019-04-07T04:55:02.163Z,35.60
2019-04-07T04:57:32.095Z,41.48
2019-04-07T05:00:02.288Z,45.73
2019-04-07T05:02:32.592Z,45.20
2019-04-07T05:05:02.623Z,45.75
2019-04-07T05:07:32.407Z,47.70
2019-04-07T05:10:01.950Z,45.33
2019-04-07T05:12:31.532Z,44.48
2019-04-07T05:15:01.749Z,44.95
2019-04-07T05:17:32.328Z,44.03
2019-04-07T05:20:02.640Z,47.23
2019-04-07T05:22:32.443Z,45.12
2019-04-07T05:25:02.401Z,43.30
2019-04-07T05:27:32.687Z,44.88
2019-04-07T05:30:02.569Z,42.33
2019-04-07T05:32:32.336Z,44.90
2019-04-07T05:35:02.346Z,43.65
2019-04-07T05:37:32.884Z,46.50
2019-04-07T05:40:03.515Z,47.73
2019-04-07T05:42:34.289Z,46.45
2019-04-07T05:45:06.574Z,46.33
2019-04-07T05:47:36.504Z,46.45
2019-04-07T05:50:07.382Z,46.33
2019-04-07T05:52:39.820Z,46.55
2019-04-07T05:55:08.937Z,46.70
2019-04-07T05:57:38.834Z,47.10
2019-04-07T06:00:15.659Z,61.70
2019-04-07T06:02:45.576Z,58.33
2019-04-07T06:05:16.216Z,59.75
2019-04-07T06:07:46.997Z,64.53
2019-04-07T06:10:18.184Z,64.95
2019-04-07T06:12:48.289Z,63.33
2019-04-07T06:15:21.974Z,65.60
2019-04-07T06:17:50.155Z,65.62
2019-04-07T06:20:19.802Z,66.80
2019-04-07T06:22:52.792Z,66.87
2019-04-07T06:25:20.978Z,70.62
2019-04-07T06:27:51.792Z,68.72
2019-04-07T06:30:23.312Z,69.58
2019-04-07T06:32:53.798Z,68.50
2019-04-07T06:35:23.641Z,72.17
2019-04-07T06:37:53.243Z,70.78
2019-04-07T06:40:23.118Z,71.25
2019-04-07T06:42:53.355Z,72.30
2019-04-07T06:45:24.646Z,74.15
2019-04-07T06:47:56.291Z,70.55
2019-04-07T06:50:31.178Z,70.80
2019-04-07T06:53:03.449Z,69.27
2019-04-07T06:55:51.246Z,72.80
2019-04-07T06:58:25.493Z,72.72
2019-04-07T07:01:02.343Z,75.28
2019-04-07T07:03:51.404Z,73.95
2019-04-07T07:06:31.910Z,71.85
2019-04-07T07:09:15.719Z,74.58
2019-04-07T07:12:03.986Z,73.12
2019-04-07T07:14:43.340Z,74.17
2019-04-07T07:17:10.931Z,75.28
2019-04-07T07:19:42.319Z,73.62
2019-04-07T07:22:15.549Z,74.90
2019-04-07T07:24:46.640Z,72.70
2019-04-07T07:27:15.445Z,73.83
2019-04-07T07:29:45.828Z,75.22
2019-04-07T07:32:16.965Z,74.03
2019-04-07T07:34:46.724Z,74.53
2019-04-07T07:37:16.897Z,73.87
2019-04-07T07:39:47.093Z,73.60
2019-04-07T07:42:19.099Z,78.83
2019-04-07T07:44:48.334Z,76.45
2019-04-07T07:47:20.837Z,73.67
2019-04-07T07:49:49.774Z,74.97
2019-04-07T07:52:21.569Z,73.78
2019-04-07T07:54:50.844Z,75.60
2019-04-07T07:57:23.505Z,72.20
2019-04-07T07:59:52.043Z,73.95
2019-04-07T08:02:22.139Z,73.42
2019-04-07T08:04:52.818Z,73.90
2019-04-07T08:07:23.597Z,73.45
2019-04-07T08:09:54.350Z,74.40
2019-04-07T08:12:25.717Z,75.90
2019-04-07T08:14:57.182Z,74.55
2019-04-07T08:17:27.094Z,77.50
2019-04-07T08:19:57.782Z,73.55
2019-04-07T08:22:33.781Z,76.05
2019-04-07T08:24:58.921Z,76.40
2019-04-07T08:27:31.173Z,76.20
2019-04-07T08:29:59.716Z,74.03
2019-04-07T08:32:31.999Z,75.50
2019-04-07T08:35:03.253Z,78.00
2019-04-07T08:37:32.007Z,74.72
2019-04-07T08:40:04.430Z,77.32
2019-04-07T08:42:33.990Z,77.67
2019-04-07T08:45:05.705Z,73.05
2019-04-07T08:47:35.670Z,73.12
2019-04-07T08:50:08.450Z,73.72
2019-04-07T08:52:40.597Z,77.40
2019-04-07T08:55:10.306Z,73.67
2019-04-07T08:57:40.121Z,75.78
2019-04-07T09:00:14.954Z,75.65
2019-04-07T09:02:44.711Z,76.87
2019-04-07T09:05:14.764Z,75.78
2019-04-07T09:07:44.701Z,76.90
2019-04-07T09:10:18.324Z,79.55
2019-04-07T09:12:47.270Z,76.82
2019-04-07T09:15:21.201Z,77.12
2019-04-07T09:17:55.537Z,78.72
2019-04-07T09:20:36.213Z,77.90
2019-04-07T09:23:11.284Z,75.22
2019-04-07T09:25:43.665Z,74.62
2019-04-07T09:28:15.133Z,75.60
2019-04-07T09:30:47.144Z,75.20
2019-04-07T09:33:24.245Z,77.08
2019-04-07T09:36:12.228Z,76.12
2019-04-07T09:39:01.856Z,74.17
2019-04-07T09:41:46.725Z,74.45
2019-04-07T09:44:27.763Z,71.85
2019-04-07T09:46:59.600Z,72.17
2019-04-07T09:49:41.369Z,72.25
2019-04-07T09:52:16.674Z,72.85
2019-04-07T09:54:51.723Z,68.37
2019-04-07T09:57:21.243Z,71.28
2019-04-07T10:00:08.515Z,70.47
2019-04-07T10:02:40.039Z,69.20
2019-04-07T10:05:30.857Z,68.00
2019-04-07T10:08:13.615Z,70.15
2019-04-07T10:10:49.993Z,65.97
2019-04-07T10:13:30.701Z,67.97
2019-04-07T10:16:18.590Z,67.12
2019-04-07T10:19:06.450Z,69.12
2019-04-07T10:21:49.839Z,68.62
2019-04-07T10:24:37.284Z,63.87
2019-04-07T10:27:14.628Z,64.25
2019-04-07T10:29:59.203Z,65.32
2019-04-07T10:35:29.573Z,50.00
2019-04-07T10:38:16.989Z,52.43
2019-04-07T10:40:49.096Z,53.45
2019-04-07T10:43:32.328Z,52.67
2019-04-07T10:46:06.737Z,51.13
2019-04-07T10:48:38.227Z,52.25
2019-04-07T10:51:21.957Z,50.43
2019-04-07T10:53:56.209Z,50.65
2019-04-07T10:56:27.801Z,56.60
2019-04-07T10:58:59.386Z,55.55
2019-04-07T11:01:33.648Z,52.40
2019-04-07T11:04:20.207Z,51.65
2019-04-07T11:06:51.757Z,50.58
2019-04-07T11:09:35.413Z,48.38
2019-04-07T11:12:06.999Z,48.60
2019-04-07T11:14:38.433Z,46.77
2019-04-07T11:17:21.581Z,48.10
2019-04-07T11:20:02.893Z,44.42
2019-04-07T11:22:50.616Z,47.30
2019-04-07T11:25:24.732Z,42.85
2019-04-07T11:27:55.968Z,40.40
2019-04-07T11:30:36.215Z,41.83
2019-04-07T11:33:13.398Z,43.17
2019-04-07T11:35:53.707Z,41.95
2019-04-07T11:38:41.406Z,40.80
2019-04-07T11:41:30.728Z,43.08
2019-04-07T11:44:05.339Z,38.78
2019-04-07T11:46:43.190Z,36.98
2019-04-07T11:49:21.420Z,33.42
2019-04-07T11:51:53.531Z,31.25
2019-04-07T11:54:41.572Z,33.65
2019-04-07T11:57:19.059Z,33.28
2019-04-07T11:59:54.018Z,35.15
2019-04-07T12:02:26.282Z,27.50
2019-04-07T12:05:04.294Z,29.33
2019-04-07T12:07:35.777Z,32.08
2019-04-07T12:10:25.797Z,32.28
2019-04-07T12:13:03.626Z,24.27
2019-04-07T12:15:51.201Z,25.52
2019-04-07T12:18:25.386Z,23.75
2019-04-07T12:21:01.123Z,19.55
2019-04-07T12:23:46.292Z,19.07
2019-04-07T12:26:20.723Z,17.90
2019-04-07T12:31:51.033Z,20.48
2019-04-07T12:34:23.380Z,19.80
2019-04-07T12:37:03.073Z,21.33
2019-04-07T12:39:35.002Z,21.33
2019-04-07T12:42:09.801Z,18.75
2019-04-07T12:44:41.762Z,17.50
2019-04-07T12:47:30.064Z,14.98
2019-04-07T12:50:20.688Z,14.38
2019-04-07T12:52:54.849Z,14.25
2019-04-07T12:55:26.406Z,13.83
2019-04-07T12:58:00.962Z,13.68
2019-04-07T13:00:52.390Z,15.70
2019-04-07T13:03:13.925Z,12.78
2019-04-07T13:05:49.673Z,16.20
2019-04-07T13:08:33.780Z,15.80
2019-04-07T13:14:04.366Z,15.13
2019-04-07T13:16:40.594Z,18.62
2019-04-07T13:19:29.815Z,19.17
2019-04-07T13:22:16.411Z,20.48
2019-04-07T13:24:51.038Z,19.02
2019-04-07T13:27:28.154Z,17.70
2019-04-07T13:30:14.332Z,24.87
2019-04-07T13:33:00.719Z,19.07
2019-04-07T13:35:30.281Z,18.52
2019-04-07T13:38:07.716Z,19.37
2019-04-07T13:40:46.987Z,21.20
2019-04-07T13:43:31.130Z,20.77
2019-04-07T13:46:18.891Z,17.73
2019-04-07T13:49:00.800Z,16.90
2019-04-07T13:51:47.182Z,15.23
2019-04-07T13:54:34.336Z,15.28
2019-04-07T13:57:06.566Z,16.02
2019-04-07T13:59:56.736Z,16.32
2019-04-07T14:02:30.404Z,15.50
2019-04-07T14:05:11.233Z,16.10
2019-04-07T14:07:58.989Z,15.72
2019-04-07T14:10:37.226Z,14.03
2019-04-07T14:13:25.653Z,13.03
2019-04-07T14:16:09.525Z,12.58
2019-04-07T14:18:56.989Z,12.07
2019-04-07T14:21:45.069Z,12.65
2019-04-07T14:24:23.760Z,12.78
2019-04-07T14:27:04.363Z,11.70
2019-04-07T14:29:39.380Z,11.45
2019-04-07T14:32:17.346Z,11.25
2019-04-07T14:34:48.766Z,11.35
2019-04-07T14:37:29.199Z,10.80
2019-04-07T14:40:01.002Z,11.50
2019-04-07T14:42:35.221Z,11.20
2019-04-07T14:45:14.530Z,10.63
2019-04-07T14:48:04.164Z,10.13
2019-04-07T14:50:40.718Z,10.38
2019-04-07T14:53:16.457Z,11.03
2019-04-07T14:55:53.193Z,11.22
2019-04-07T14:58:36.932Z,10.60
2019-04-07T15:01:11.216Z,10.72
2019-04-07T15:03:40.861Z,53.33
2019-04-07T15:06:10.900Z,52.43
2019-04-07T15:08:48.020Z,52.50
2019-04-07T15:11:19.554Z,53.58
2019-04-07T15:13:49.511Z,53.92
2019-04-07T15:16:19.661Z,50.58
2019-04-07T15:18:50.123Z,48.68
2019-04-07T15:21:19.984Z,44.98
2019-04-07T15:23:50.697Z,44.20
2019-04-07T15:26:22.044Z,43.42
2019-04-07T15:28:52.415Z,41.15
2019-04-07T15:31:23.104Z,39.50
2019-04-07T15:33:53.036Z,40.17
2019-04-07T15:36:23.224Z,39.10
2019-04-07T15:38:55.517Z,36.55
2019-04-07T15:41:25.379Z,37.70
2019-04-07T15:43:55.298Z,36.90
2019-04-07T15:46:25.664Z,38.70
2019-04-07T15:48:56.762Z,37.00
2019-04-07T15:51:26.585Z,39.53
2019-04-07T15:53:56.524Z,44.38
2019-04-07T15:56:27.069Z,47.95
2019-04-07T15:59:00.702Z,51.30
2019-04-07T16:01:28.043Z,47.58
2019-04-07T16:03:57.679Z,46.73
2019-04-07T16:06:27.930Z,43.68
2019-04-07T16:09:00.223Z,44.00
2019-04-07T16:11:30.470Z,45.33
2019-04-07T16:14:00.399Z,44.30
2019-04-07T16:16:30.758Z,42.20
2019-04-07T16:19:01.204Z,46.23
2019-04-07T16:21:31.146Z,44.53
2019-04-07T16:24:00.746Z,45.12
2019-04-07T16:26:31.968Z,47.58
2019-04-07T16:29:01.796Z,50.35
2019-04-07T16:31:32.201Z,52.98
2019-04-07T16:34:05.774Z,52.65
2019-04-07T16:36:35.095Z,55.37
2019-04-07T16:39:09.281Z,50.15
2019-04-07T16:41:40.362Z,55.17
2019-04-07T16:47:19.536Z,43.20
2019-04-07T16:49:46.702Z,45.08
2019-04-07T16:52:13.731Z,45.48
2019-04-07T16:54:44.579Z,44.00
2019-04-07T16:57:15.321Z,44.63
2019-04-07T16:59:44.950Z,40.45
2019-04-07T17:02:17.025Z,55.78
2019-04-07T17:04:45.991Z,63.80
2019-04-07T17:07:17.710Z,60.60
2019-04-07T17:09:46.819Z,56.23
2019-04-07T17:12:16.862Z,51.63
2019-04-07T17:14:47.070Z,51.20
2019-04-07T17:17:20.317Z,46.45
2019-04-07T17:19:47.868Z,43.33
2019-04-07T17:22:18.128Z,39.10
2019-04-07T17:24:48.018Z,30.45
2019-04-07T17:27:18.297Z,28.40
2019-04-07T17:29:52.540Z,27.22
2019-04-07T17:32:19.974Z,24.92
2019-04-07T17:34:49.781Z,32.03
2019-04-07T17:37:20.077Z,37.00
2019-04-07T17:39:51.589Z,42.80
2019-04-07T17:42:25.020Z,47.43
2019-04-07T17:44:54.065Z,51.28
2019-04-07T17:47:38.179Z,50.67
2019-04-07T17:50:10.846Z,51.53
2019-04-07T17:52:42.420Z,57.05
2019-04-07T17:55:30.414Z,59.73
2019-04-07T17:58:07.878Z,66.67
2019-04-07T18:00:53.266Z,68.22
2019-04-07T18:03:27.541Z,66.53
2019-04-07T18:06:02.441Z,68.07
2019-04-07T18:08:45.314Z,68.33
2019-04-07T18:11:18.279Z,70.22
2019-04-07T18:13:56.699Z,71.35
2019-04-07T18:16:40.775Z,73.67
2019-04-07T18:19:13.014Z,74.47
2019-04-07T18:21:53.884Z,73.97
2019-04-07T18:24:40.621Z,74.55
2019-04-07T18:27:17.143Z,78.47
2019-04-07T18:29:53.893Z,76.30
2019-04-07T18:32:35.173Z,78.25
2019-04-07T18:35:14.106Z,80.40
2019-04-07T18:37:48.446Z,79.50
2019-04-07T18:40:27.357Z,80.22
2019-04-07T18:43:02.160Z,81.55
2019-04-07T18:45:36.703Z,81.45
2019-04-07T18:48:27.478Z,91.75
2019-04-07T18:50:58.994Z,96.08
2019-04-07T18:53:30.750Z,97.78
2019-04-07T18:56:20.074Z,98.03
2019-04-07T18:58:59.577Z,96.85
2019-04-07T19:01:45.585Z,96.50
2019-04-07T19:04:23.801Z,96.17
2019-04-07T19:06:55.901Z,97.12
2019-04-07T19:09:39.542Z,101.25
2019-04-07T19:12:18.685Z,102.07
2019-04-07T19:15:03.771Z,151.05
2019-04-07T19:17:46.477Z,106.75
2019-04-07T19:20:20.497Z,108.12
2019-04-07T19:22:58.196Z,104.25
2019-04-07T19:25:33.361Z,102.22
2019-04-07T19:28:11.405Z,106.65
2019-04-07T19:30:45.372Z,105.27
2019-04-07T19:33:19.179Z,109.78
2019-04-07T19:35:51.869Z,108.85
2019-04-07T19:38:29.409Z,108.55
2019-04-07T19:41:04.671Z,108.72
2019-04-07T19:43:48.461Z,106.20
2019-04-07T19:46:34.725Z,102.60
2019-04-07T19:49:20.097Z,106.07
2019-04-07T19:52:05.786Z,105.47
2019-04-07T19:54:52.852Z,107.90
2019-04-07T19:57:24.449Z,109.78
2019-04-07T19:59:58.013Z,108.75
2019-04-07T20:02:35.979Z,112.32
2019-04-07T20:05:17.345Z,109.83
2019-04-07T20:08:04.133Z,110.68
2019-04-07T20:10:35.989Z,112.95
2019-04-07T20:13:22.229Z,113.42
2019-04-07T20:15:55.040Z,114.45
2019-04-07T20:18:30.024Z,112.25
2019-04-07T20:21:08.460Z,114.25
2019-04-07T20:23:40.036Z,113.15
2019-04-07T20:26:28.420Z,115.17
2019-04-07T20:29:17.151Z,111.30
2019-04-07T20:32:00.531Z,111.00
2019-04-07T20:34:50.429Z,115.17
2019-04-07T20:37:30.637Z,116.20
2019-04-07T20:40:03.518Z,115.65
2019-04-07T20:42:37.376Z,114.55
2019-04-07T20:45:14.187Z,113.08
2019-04-07T20:50:12.937Z,110.42
2019-04-07T20:53:10.176Z,112.37
2019-04-07T20:55:49.512Z,109.92
2019-04-07T20:58:25.404Z,111.47
2019-04-07T21:01:17.294Z,110.48
2019-04-07T21:06:50.538Z,112.85
2019-04-07T21:09:21.982Z,112.08
2019-04-07T21:11:58.879Z,112.92
2019-04-07T21:14:43.102Z,115.88
2019-04-07T21:17:17.538Z,117.20
2019-04-07T21:19:49.613Z,113.72
2019-04-07T21:22:21.013Z,114.00
2019-04-07T21:25:11.452Z,116.85
2019-04-07T21:28:00.107Z,119.82
2019-04-07T21:30:37.129Z,122.75
2019-04-07T21:33:08.960Z,122.28
2019-04-07T21:35:40.539Z,122.95
2019-04-07T21:38:16.169Z,123.25
2019-04-07T21:40:48.064Z,124.25
2019-04-07T21:43:24.324Z,127.53
2019-04-07T21:46:06.743Z,127.82
2019-04-07T21:48:54.025Z,127.97
2019-04-07T21:51:25.277Z,121.10
2019-04-07T21:54:00.122Z,130.52
2019-04-07T21:56:35.446Z,130.18
2019-04-07T21:59:07.497Z,128.05
2019-04-07T22:01:39.810Z,127.40
2019-04-07T22:04:18.902Z,127.53
2019-04-07T22:06:49.692Z,127.27
2019-04-07T22:09:21.031Z,128.85
2019-04-07T22:11:51.443Z,130.43
2019-04-07T22:14:21.226Z,130.97
2019-04-07T22:16:51.277Z,129.35
2019-04-07T22:19:20.974Z,128.55
2019-04-07T22:21:55.102Z,130.65
2019-04-07T22:24:22.037Z,129.40
2019-04-07T22:26:51.651Z,130.30
2019-04-07T22:29:21.250Z,131.57
2019-04-07T22:31:53.443Z,127.95
2019-04-07T22:34:23.309Z,132.73
2019-04-07T22:36:53.734Z,129.93
2019-04-07T22:39:27.514Z,129.57
2019-04-07T22:41:56.148Z,127.75
2019-04-07T22:44:26.558Z,126.00
2019-04-07T22:46:56.518Z,128.35
2019-04-07T22:49:30.823Z,125.47
2019-04-07T22:51:57.655Z,125.65
2019-04-07T22:54:30.701Z,126.53
2019-04-07T22:56:58.904Z,127.30
2019-04-07T22:59:28.446Z,128.32
2019-04-07T23:01:58.034Z,123.47
2019-04-07T23:04:27.939Z,124.27
2019-04-07T23:06:57.553Z,124.40
2019-04-07T23:09:27.245Z,121.92
2019-04-07T23:11:56.841Z,122.75
2019-04-07T23:14:27.489Z,123.33
2019-04-07T23:16:57.468Z,122.98
2019-04-07T23:19:27.107Z,126.58
2019-04-07T23:21:57.532Z,122.22
2019-04-07T23:24:27.138Z,121.40
2019-04-07T23:26:56.844Z,122.40
2019-04-07T23:29:26.445Z,123.95
2019-04-07T23:31:56.027Z,126.30
2019-04-07T23:34:25.621Z,124.90
2019-04-07T23:36:55.201Z,113.62
2019-04-07T23:39:25.088Z,123.70
2019-04-07T23:41:54.687Z,120.47
2019-04-07T23:44:24.335Z,121.05
2019-04-07T23:46:53.905Z,119.80
2019-04-07T23:49:26.145Z,121.87
2019-04-07T23:51:55.718Z,116.70
2019-04-07T23:54:25.312Z,117.85
2019-04-07T23:56:54.895Z,113.88
2019-04-07T23:59:24.920Z,113.08
